Aérodrome :
LOGIN :

S'inscrire | Disclaimer

   EN    FR    IT 

 










Légende :    VFR   VFR Marginal   IFR   IFR Intensif   IFR Très Intensif
Visi : 
Plafond : 
>= 8 km
>= 3000ft
5 à 8 km
1000 à 3000 ft
1500m à 5 km
500 à 1000 ft
800 à 1500m
200 à 500 ft
< 800m
< 200 ft
Symboles :   Orages  Brouillard  Fortes neiges  Fortes précipitations  Vent > 20 kt
SIGMETs :   Divers  Orages  Givrage  Turbulence  Onde Orograph.  Cendres Volcan.







- Altitude de l'aérodrome : 355 ft
- Code IATA : VBS


LIPO - Montichiari - Brescia

DERNIER METAR :
  • 201250Z 24005KT 1000 R32/P2000 BR BKN006 08/06 Q1024

METARs EXPIRÉS :
  • 201150Z 23003KT 1000 R32/1800 BR BKN005 07/06 Q1025
  • 201050Z 24003KT 0800 R32/1500 FG BKN003 06/05 Q1025

TAF TAF LIPO
Valide du 20 à 12h jusqu'au 21 à 12h UTC


201100Z 2012/2112 VRB05KT 1200 BCFG BKN005
BECMG 2012/2014 4000 BR NSC
BECMG 2021/2024 1500 BCFG
TEMPO 2102/2106 0400 FG BKN003
Pas de NOTAMs connus pour ce terrain.



MET'MAP, la Météo Aéronautique d'un coup d'oeil ! - Copyright ORBIFLY Décembre 2007 - Disclaimer

ORBIFLY MET'MAP TEAM :

Programmation & Développement : Alexandra Zaïnal
Conception & Développement : Baudouin d'Aumeries
Co-Programmation & Développement : Marc-Olivier Méhu
Soutien technique & logistique : Manuel Goepfert

Contact : metmap@orbifly.com




SOURCES & CREDITS :

   NOAA